sensor_id;sensor_type;location;lat;lon;timestamp;P1;durP1;ratioP1;P2;durP2;ratioP2
3849;SDS011;1940;51.052;13.678;2023-11-19T00:02:06;9.23;;;6.40;;
3849;SDS011;1940;51.052;13.678;2023-11-19T00:04:33;11.97;;;6.97;;
3849;SDS011;1940;51.052;13.678;2023-11-19T00:07:02;12.30;;;6.73;;
3849;SDS011;1940;51.052;13.678;2023-11-19T00:09:29;12.90;;;6.50;;
3849;SDS011;1940;51.052;13.678;2023-11-19T00:11:55;11.80;;;6.87;;
3849;SDS011;1940;51.052;13.678;2023-11-19T00:14:20;13.00;;;6.87;;
3849;SDS011;1940;51.052;13.678;2023-11-19T00:16:46;10.83;;;7.40;;
3849;SDS011;1940;51.052;13.678;2023-11-19T00:19:11;12.10;;;6.90;;
3849;SDS011;1940;51.052;13.678;2023-11-19T00:21:37;13.10;;;7.67;;
3849;SDS011;1940;51.052;13.678;2023-11-19T00:24:03;11.73;;;7.10;;
3849;SDS011;1940;51.052;13.678;2023-11-19T00:26:29;12.83;;;7.50;;
3849;SDS011;1940;51.052;13.678;2023-11-19T00:28:55;13.20;;;7.40;;
3849;SDS011;1940;51.052;13.678;2023-11-19T00:31:21;10.40;;;6.77;;
3849;SDS011;1940;51.052;13.678;2023-11-19T00:33:46;14.20;;;8.40;;
3849;SDS011;1940;51.052;13.678;2023-11-19T00:36:12;11.97;;;7.70;;
3849;SDS011;1940;51.052;13.678;2023-11-19T00:38:38;15.07;;;8.40;;
3849;SDS011;1940;51.052;13.678;2023-11-19T00:41:03;15.50;;;8.10;;
3849;SDS011;1940;51.052;13.678;2023-11-19T00:43:29;11.90;;;7.97;;
3849;SDS011;1940;51.052;13.678;2023-11-19T00:45:54;11.60;;;7.83;;
3849;SDS011;1940;51.052;13.678;2023-11-19T00:48:20;13.77;;;8.67;;
3849;SDS011;1940;51.052;13.678;2023-11-19T00:50:45;15.90;;;8.60;;
3849;SDS011;1940;51.052;13.678;2023-11-19T00:53:11;14.30;;;8.97;;
3849;SDS011;1940;51.052;13.678;2023-11-19T00:55:37;14.73;;;8.97;;
3849;SDS011;1940;51.052;13.678;2023-11-19T00:58:02;16.80;;;9.10;;
3849;SDS011;1940;51.052;13.678;2023-11-19T01:00:28;15.10;;;9.00;;
3849;SDS011;1940;51.052;13.678;2023-11-19T01:02:53;13.20;;;8.30;;
3849;SDS011;1940;51.052;13.678;2023-11-19T01:05:19;16.90;;;9.50;;
3849;SDS011;1940;51.052;13.678;2023-11-19T01:07:47;16.03;;;9.60;;
3849;SDS011;1940;51.052;13.678;2023-11-19T01:10:13;14.20;;;8.40;;
3849;SDS011;1940;51.052;13.678;2023-11-19T01:12:40;16.33;;;9.10;;
3849;SDS011;1940;51.052;13.678;2023-11-19T01:15:06;14.63;;;8.70;;
3849;SDS011;1940;51.052;13.678;2023-11-19T01:17:32;11.57;;;7.30;;
3849;SDS011;1940;51.052;13.678;2023-11-19T01:19:57;14.80;;;8.97;;
3849;SDS011;1940;51.052;13.678;2023-11-19T01:22:23;16.20;;;8.63;;
3849;SDS011;1940;51.052;13.678;2023-11-19T01:24:48;12.40;;;7.60;;
3849;SDS011;1940;51.052;13.678;2023-11-19T01:27:14;14.17;;;8.23;;
3849;SDS011;1940;51.052;13.678;2023-11-19T01:29:39;13.73;;;8.13;;
3849;SDS011;1940;51.052;13.678;2023-11-19T01:32:05;14.53;;;8.40;;
3849;SDS011;1940;51.052;13.678;2023-11-19T01:34:31;12.00;;;7.33;;
3849;SDS011;1940;51.052;13.678;2023-11-19T01:36:57;12.73;;;8.07;;
3849;SDS011;1940;51.052;13.678;2023-11-19T01:39:22;10.87;;;6.73;;
3849;SDS011;1940;51.052;13.678;2023-11-19T01:41:48;11.93;;;6.80;;
3849;SDS011;1940;51.052;13.678;2023-11-19T01:44:13;10.70;;;6.50;;
3849;SDS011;1940;51.052;13.678;2023-11-19T01:46:42;12.70;;;7.03;;
3849;SDS011;1940;51.052;13.678;2023-11-19T01:49:12;12.00;;;7.00;;
3849;SDS011;1940;51.052;13.678;2023-11-19T01:51:40;11.47;;;6.80;;
3849;SDS011;1940;51.052;13.678;2023-11-19T01:54:06;10.93;;;6.60;;
3849;SDS011;1940;51.052;13.678;2023-11-19T01:56:32;14.53;;;7.30;;
3849;SDS011;1940;51.052;13.678;2023-11-19T01:58:59;10.17;;;6.40;;
3849;SDS011;1940;51.052;13.678;2023-11-19T02:01:25;10.93;;;6.80;;
3849;SDS011;1940;51.052;13.678;2023-11-19T02:03:52;9.47;;;5.80;;
3849;SDS011;1940;51.052;13.678;2023-11-19T02:06:17;8.90;;;5.50;;
3849;SDS011;1940;51.052;13.678;2023-11-19T02:08:43;8.40;;;5.80;;
3849;SDS011;1940;51.052;13.678;2023-11-19T02:11:09;7.60;;;5.17;;
3849;SDS011;1940;51.052;13.678;2023-11-19T02:13:35;9.47;;;5.63;;
3849;SDS011;1940;51.052;13.678;2023-11-19T02:16:02;10.17;;;5.73;;
3849;SDS011;1940;51.052;13.678;2023-11-19T02:18:29;10.57;;;5.40;;
3849;SDS011;1940;51.052;13.678;2023-11-19T02:20:58;9.30;;;4.70;;
3849;SDS011;1940;51.052;13.678;2023-11-19T02:23:25;9.37;;;5.43;;
3849;SDS011;1940;51.052;13.678;2023-11-19T02:28:31;6.97;;;4.70;;
3849;SDS011;1940;51.052;13.678;2023-11-19T02:30:58;8.00;;;5.33;;
3849;SDS011;1940;51.052;13.678;2023-11-19T02:33:24;7.00;;;4.57;;
3849;SDS011;1940;51.052;13.678;2023-11-19T02:35:50;7.77;;;5.13;;
3849;SDS011;1940;51.052;13.678;2023-11-19T02:38:16;6.57;;;4.33;;
3849;SDS011;1940;51.052;13.678;2023-11-19T02:40:41;7.23;;;4.47;;
3849;SDS011;1940;51.052;13.678;2023-11-19T02:43:07;7.40;;;4.40;;
3849;SDS011;1940;51.052;13.678;2023-11-19T02:45:33;9.80;;;4.27;;
3849;SDS011;1940;51.052;13.678;2023-11-19T02:47:59;6.10;;;4.00;;
3849;SDS011;1940;51.052;13.678;2023-11-19T02:50:28;5.97;;;4.10;;
3849;SDS011;1940;51.052;13.678;2023-11-19T02:52:54;5.17;;;3.60;;
3849;SDS011;1940;51.052;13.678;2023-11-19T02:55:21;4.10;;;3.10;;
3849;SDS011;1940;51.052;13.678;2023-11-19T02:57:49;4.50;;;3.30;;
3849;SDS011;1940;51.052;13.678;2023-11-19T03:03:37;4.10;;;2.70;;
3849;SDS011;1940;51.052;13.678;2023-11-19T03:06:05;4.13;;;2.87;;
3849;SDS011;1940;51.052;13.678;2023-11-19T03:08:32;2.93;;;2.60;;
3849;SDS011;1940;51.052;13.678;2023-11-19T03:10:58;3.53;;;2.60;;
3849;SDS011;1940;51.052;13.678;2023-11-19T03:13:24;4.83;;;2.70;;
3849;SDS011;1940;51.052;13.678;2023-11-19T03:15:49;4.00;;;2.50;;
3849;SDS011;1940;51.052;13.678;2023-11-19T03:18:16;4.47;;;2.93;;
3849;SDS011;1940;51.052;13.678;2023-11-19T03:20:42;3.10;;;2.50;;
3849;SDS011;1940;51.052;13.678;2023-11-19T03:23:07;4.23;;;2.93;;
3849;SDS011;1940;51.052;13.678;2023-11-19T03:25:33;3.63;;;2.70;;
3849;SDS011;1940;51.052;13.678;2023-11-19T03:27:59;3.27;;;2.20;;
3849;SDS011;1940;51.052;13.678;2023-11-19T03:30:26;3.60;;;2.63;;
3849;SDS011;1940;51.052;13.678;2023-11-19T03:32:53;5.23;;;2.40;;
3849;SDS011;1940;51.052;13.678;2023-11-19T03:35:19;3.43;;;2.30;;
3849;SDS011;1940;51.052;13.678;2023-11-19T03:37:44;3.27;;;2.53;;
3849;SDS011;1940;51.052;13.678;2023-11-19T03:40:10;3.90;;;2.57;;
3849;SDS011;1940;51.052;13.678;2023-11-19T03:42:38;3.07;;;2.60;;
3849;SDS011;1940;51.052;13.678;2023-11-19T03:45:05;4.30;;;2.50;;
3849;SDS011;1940;51.052;13.678;2023-11-19T03:47:33;2.10;;;1.90;;
3849;SDS011;1940;51.052;13.678;2023-11-19T03:49:59;2.47;;;2.03;;
3849;SDS011;1940;51.052;13.678;2023-11-19T03:52:25;3.50;;;2.50;;
3849;SDS011;1940;51.052;13.678;2023-11-19T03:54:52;3.80;;;2.67;;
3849;SDS011;1940;51.052;13.678;2023-11-19T03:57:18;3.10;;;2.33;;
3849;SDS011;1940;51.052;13.678;2023-11-19T03:59:43;3.03;;;2.47;;
3849;SDS011;1940;51.052;13.678;2023-11-19T04:02:09;3.10;;;2.50;;
3849;SDS011;1940;51.052;13.678;2023-11-19T04:04:35;3.60;;;2.30;;
3849;SDS011;1940;51.052;13.678;2023-11-19T04:07:01;3.40;;;2.27;;
3849;SDS011;1940;51.052;13.678;2023-11-19T04:09:28;2.67;;;2.33;;
3849;SDS011;1940;51.052;13.678;2023-11-19T04:11:53;2.17;;;1.97;;
3849;SDS011;1940;51.052;13.678;2023-11-19T04:14:19;4.10;;;2.10;;
3849;SDS011;1940;51.052;13.678;2023-11-19T04:16:44;8.97;;;2.23;;
3849;SDS011;1940;51.052;13.678;2023-11-19T04:19:10;2.43;;;2.23;;
3849;SDS011;1940;51.052;13.678;2023-11-19T04:21:36;2.80;;;2.50;;
3849;SDS011;1940;51.052;13.678;2023-11-19T04:24:02;3.13;;;2.63;;
3849;SDS011;1940;51.052;13.678;2023-11-19T04:26:28;4.10;;;2.80;;
3849;SDS011;1940;51.052;13.678;2023-11-19T04:28:53;3.60;;;2.43;;
3849;SDS011;1940;51.052;13.678;2023-11-19T04:31:19;3.80;;;2.50;;
3849;SDS011;1940;51.052;13.678;2023-11-19T04:33:44;4.03;;;2.60;;
3849;SDS011;1940;51.052;13.678;2023-11-19T04:36:10;3.40;;;2.47;;
3849;SDS011;1940;51.052;13.678;2023-11-19T04:38:36;4.83;;;2.90;;
3849;SDS011;1940;51.052;13.678;2023-11-19T04:41:03;3.67;;;2.70;;
3849;SDS011;1940;51.052;13.678;2023-11-19T04:43:30;5.80;;;3.17;;
3849;SDS011;1940;51.052;13.678;2023-11-19T04:45:56;5.50;;;3.27;;
3849;SDS011;1940;51.052;13.678;2023-11-19T04:48:22;5.50;;;3.33;;
3849;SDS011;1940;51.052;13.678;2023-11-19T04:50:48;5.47;;;3.80;;
3849;SDS011;1940;51.052;13.678;2023-11-19T04:53:13;4.80;;;3.43;;
3849;SDS011;1940;51.052;13.678;2023-11-19T04:55:40;5.27;;;3.50;;
3849;SDS011;1940;51.052;13.678;2023-11-19T04:58:06;8.83;;;3.70;;
3849;SDS011;1940;51.052;13.678;2023-11-19T05:00:32;9.53;;;3.77;;
3849;SDS011;1940;51.052;13.678;2023-11-19T05:02:57;7.20;;;4.17;;
3849;SDS011;1940;51.052;13.678;2023-11-19T05:05:23;5.00;;;3.50;;
3849;SDS011;1940;51.052;13.678;2023-11-19T05:07:49;5.50;;;3.90;;
3849;SDS011;1940;51.052;13.678;2023-11-19T05:10:14;6.23;;;4.20;;
3849;SDS011;1940;51.052;13.678;2023-11-19T05:12:40;5.30;;;3.93;;
3849;SDS011;1940;51.052;13.678;2023-11-19T05:15:06;6.37;;;3.77;;
3849;SDS011;1940;51.052;13.678;2023-11-19T05:17:32;7.93;;;4.20;;
3849;SDS011;1940;51.052;13.678;2023-11-19T05:19:58;7.33;;;4.37;;
3849;SDS011;1940;51.052;13.678;2023-11-19T05:22:23;8.87;;;4.40;;
3849;SDS011;1940;51.052;13.678;2023-11-19T05:24:49;5.83;;;4.20;;
3849;SDS011;1940;51.052;13.678;2023-11-19T05:27:15;7.33;;;4.37;;
3849;SDS011;1940;51.052;13.678;2023-11-19T05:29:40;6.87;;;4.70;;
3849;SDS011;1940;51.052;13.678;2023-11-19T05:32:06;5.23;;;3.90;;
3849;SDS011;1940;51.052;13.678;2023-11-19T05:34:32;6.60;;;4.50;;
3849;SDS011;1940;51.052;13.678;2023-11-19T05:36:57;6.33;;;4.27;;
3849;SDS011;1940;51.052;13.678;2023-11-19T05:39:23;8.20;;;5.07;;
3849;SDS011;1940;51.052;13.678;2023-11-19T05:41:49;7.60;;;4.83;;
3849;SDS011;1940;51.052;13.678;2023-11-19T05:44:15;7.80;;;4.93;;
3849;SDS011;1940;51.052;13.678;2023-11-19T05:46:41;7.43;;;5.10;;
3849;SDS011;1940;51.052;13.678;2023-11-19T05:49:07;6.33;;;4.30;;
3849;SDS011;1940;51.052;13.678;2023-11-19T05:51:36;6.87;;;4.70;;
3849;SDS011;1940;51.052;13.678;2023-11-19T05:54:02;6.13;;;4.37;;
3849;SDS011;1940;51.052;13.678;2023-11-19T05:56:27;6.80;;;4.90;;
3849;SDS011;1940;51.052;13.678;2023-11-19T05:58:57;7.73;;;4.50;;
3849;SDS011;1940;51.052;13.678;2023-11-19T06:01:25;8.17;;;5.47;;
3849;SDS011;1940;51.052;13.678;2023-11-19T06:03:51;6.37;;;4.30;;
3849;SDS011;1940;51.052;13.678;2023-11-19T06:06:17;6.17;;;4.60;;
3849;SDS011;1940;51.052;13.678;2023-11-19T06:08:42;8.80;;;5.43;;
3849;SDS011;1940;51.052;13.678;2023-11-19T06:11:09;7.27;;;5.30;;
3849;SDS011;1940;51.052;13.678;2023-11-19T06:13:39;8.80;;;5.20;;
3849;SDS011;1940;51.052;13.678;2023-11-19T06:16:05;8.67;;;4.90;;
3849;SDS011;1940;51.052;13.678;2023-11-19T06:18:31;7.53;;;5.10;;
3849;SDS011;1940;51.052;13.678;2023-11-19T06:20:57;8.07;;;5.43;;
3849;SDS011;1940;51.052;13.678;2023-11-19T06:23:22;7.97;;;5.17;;
3849;SDS011;1940;51.052;13.678;2023-11-19T06:25:48;8.27;;;5.53;;
3849;SDS011;1940;51.052;13.678;2023-11-19T06:28:14;11.73;;;5.90;;
3849;SDS011;1940;51.052;13.678;2023-11-19T06:30:39;8.97;;;6.00;;
3849;SDS011;1940;51.052;13.678;2023-11-19T06:33:06;9.13;;;5.53;;
3849;SDS011;1940;51.052;13.678;2023-11-19T06:35:32;8.83;;;5.60;;
3849;SDS011;1940;51.052;13.678;2023-11-19T06:38:02;10.70;;;6.30;;
3849;SDS011;1940;51.052;13.678;2023-11-19T06:40:29;9.07;;;5.97;;
3849;SDS011;1940;51.052;13.678;2023-11-19T06:42:55;9.30;;;5.80;;
3849;SDS011;1940;51.052;13.678;2023-11-19T06:45:21;9.53;;;5.63;;
3849;SDS011;1940;51.052;13.678;2023-11-19T06:47:47;10.87;;;6.10;;
3849;SDS011;1940;51.052;13.678;2023-11-19T06:50:12;8.40;;;5.53;;
3849;SDS011;1940;51.052;13.678;2023-11-19T06:52:38;10.50;;;5.60;;
3849;SDS011;1940;51.052;13.678;2023-11-19T06:55:04;10.80;;;5.80;;
3849;SDS011;1940;51.052;13.678;2023-11-19T06:57:29;9.57;;;5.40;;
3849;SDS011;1940;51.052;13.678;2023-11-19T06:59:57;10.37;;;6.50;;
3849;SDS011;1940;51.052;13.678;2023-11-19T07:02:23;9.70;;;6.10;;
3849;SDS011;1940;51.052;13.678;2023-11-19T07:04:49;9.70;;;5.70;;
3849;SDS011;1940;51.052;13.678;2023-11-19T07:07:15;9.53;;;5.93;;
3849;SDS011;1940;51.052;13.678;2023-11-19T07:09:41;6.93;;;4.80;;
3849;SDS011;1940;51.052;13.678;2023-11-19T07:12:06;8.40;;;5.17;;
3849;SDS011;1940;51.052;13.678;2023-11-19T07:14:32;6.43;;;4.60;;
3849;SDS011;1940;51.052;13.678;2023-11-19T07:16:57;7.30;;;4.53;;
3849;SDS011;1940;51.052;13.678;2023-11-19T07:19:23;8.57;;;4.93;;
3849;SDS011;1940;51.052;13.678;2023-11-19T07:21:48;7.63;;;5.03;;
3849;SDS011;1940;51.052;13.678;2023-11-19T07:24:14;8.03;;;5.83;;
3849;SDS011;1940;51.052;13.678;2023-11-19T07:26:43;7.83;;;4.63;;
3849;SDS011;1940;51.052;13.678;2023-11-19T07:29:09;7.60;;;5.03;;
3849;SDS011;1940;51.052;13.678;2023-11-19T07:31:35;8.63;;;5.33;;
3849;SDS011;1940;51.052;13.678;2023-11-19T07:34:00;8.33;;;4.63;;
3849;SDS011;1940;51.052;13.678;2023-11-19T07:36:26;7.83;;;5.00;;
3849;SDS011;1940;51.052;13.678;2023-11-19T07:38:53;7.73;;;5.40;;
3849;SDS011;1940;51.052;13.678;2023-11-19T07:41:18;7.20;;;4.77;;
3849;SDS011;1940;51.052;13.678;2023-11-19T07:43:44;7.93;;;5.10;;
3849;SDS011;1940;51.052;13.678;2023-11-19T07:46:11;11.17;;;4.97;;
3849;SDS011;1940;51.052;13.678;2023-11-19T07:48:40;8.43;;;4.93;;
3849;SDS011;1940;51.052;13.678;2023-11-19T07:51:07;7.93;;;4.47;;
3849;SDS011;1940;51.052;13.678;2023-11-19T07:53:33;5.93;;;4.23;;
3849;SDS011;1940;51.052;13.678;2023-11-19T07:55:59;15.00;;;9.20;;
3849;SDS011;1940;51.052;13.678;2023-11-19T07:58:25;9.63;;;6.23;;
3849;SDS011;1940;51.052;13.678;2023-11-19T08:00:50;8.37;;;4.93;;
3849;SDS011;1940;51.052;13.678;2023-11-19T08:03:17;7.20;;;4.70;;
3849;SDS011;1940;51.052;13.678;2023-11-19T08:05:44;9.17;;;5.03;;
3849;SDS011;1940;51.052;13.678;2023-11-19T08:08:13;8.83;;;5.10;;
3849;SDS011;1940;51.052;13.678;2023-11-19T08:10:38;7.00;;;4.93;;
3849;SDS011;1940;51.052;13.678;2023-11-19T08:13:04;5.73;;;4.27;;
3849;SDS011;1940;51.052;13.678;2023-11-19T08:15:30;5.20;;;3.00;;
3849;SDS011;1940;51.052;13.678;2023-11-19T08:17:56;8.57;;;5.20;;
3849;SDS011;1940;51.052;13.678;2023-11-19T08:20:22;4.57;;;2.90;;
3849;SDS011;1940;51.052;13.678;2023-11-19T08:22:48;4.80;;;2.57;;
3849;SDS011;1940;51.052;13.678;2023-11-19T08:25:14;1.80;;;1.30;;
3849;SDS011;1940;51.052;13.678;2023-11-19T08:27:39;3.70;;;1.80;;
3849;SDS011;1940;51.052;13.678;2023-11-19T08:30:05;2.67;;;1.40;;
3849;SDS011;1940;51.052;13.678;2023-11-19T08:32:31;2.87;;;1.40;;
3849;SDS011;1940;51.052;13.678;2023-11-19T08:34:57;1.53;;;1.30;;
3849;SDS011;1940;51.052;13.678;2023-11-19T08:37:22;2.80;;;1.20;;
3849;SDS011;1940;51.052;13.678;2023-11-19T08:39:48;1.63;;;1.23;;
3849;SDS011;1940;51.052;13.678;2023-11-19T08:42:15;1.57;;;1.10;;
3849;SDS011;1940;51.052;13.678;2023-11-19T08:44:41;2.17;;;1.00;;
3849;SDS011;1940;51.052;13.678;2023-11-19T08:47:19;3.90;;;1.10;;
3849;SDS011;1940;51.052;13.678;2023-11-19T08:49:44;4.90;;;2.27;;
3849;SDS011;1940;51.052;13.678;2023-11-19T08:52:11;3.60;;;1.60;;
3849;SDS011;1940;51.052;13.678;2023-11-19T08:54:36;3.03;;;1.30;;
3849;SDS011;1940;51.052;13.678;2023-11-19T08:57:02;3.13;;;1.20;;
3849;SDS011;1940;51.052;13.678;2023-11-19T08:59:29;5.43;;;1.67;;
3849;SDS011;1940;51.052;13.678;2023-11-19T09:01:54;2.90;;;1.20;;
3849;SDS011;1940;51.052;13.678;2023-11-19T09:04:20;2.13;;;1.50;;
3849;SDS011;1940;51.052;13.678;2023-11-19T09:06:48;5.73;;;2.60;;
3849;SDS011;1940;51.052;13.678;2023-11-19T09:09:14;4.27;;;2.07;;
3849;SDS011;1940;51.052;13.678;2023-11-19T09:11:40;2.93;;;1.73;;
3849;SDS011;1940;51.052;13.678;2023-11-19T09:14:06;1.83;;;1.30;;
3849;SDS011;1940;51.052;13.678;2023-11-19T09:16:32;3.67;;;1.83;;
3849;SDS011;1940;51.052;13.678;2023-11-19T09:18:57;2.03;;;1.33;;
3849;SDS011;1940;51.052;13.678;2023-11-19T09:21:24;1.67;;;1.20;;
3849;SDS011;1940;51.052;13.678;2023-11-19T09:23:54;2.33;;;1.30;;
3849;SDS011;1940;51.052;13.678;2023-11-19T09:26:20;1.50;;;1.00;;
3849;SDS011;1940;51.052;13.678;2023-11-19T09:28:45;4.20;;;1.20;;
3849;SDS011;1940;51.052;13.678;2023-11-19T09:31:18;3.00;;;1.50;;
3849;SDS011;1940;51.052;13.678;2023-11-19T09:33:44;3.90;;;1.40;;
3849;SDS011;1940;51.052;13.678;2023-11-19T09:36:11;2.90;;;1.77;;
3849;SDS011;1940;51.052;13.678;2023-11-19T09:38:39;2.83;;;1.40;;
3849;SDS011;1940;51.052;13.678;2023-11-19T09:41:05;5.03;;;1.30;;
3849;SDS011;1940;51.052;13.678;2023-11-19T09:43:34;3.73;;;1.33;;
3849;SDS011;1940;51.052;13.678;2023-11-19T09:46:09;2.23;;;1.23;;
3849;SDS011;1940;51.052;13.678;2023-11-19T09:48:36;4.70;;;1.20;;
3849;SDS011;1940;51.052;13.678;2023-11-19T09:51:12;5.50;;;1.30;;
3849;SDS011;1940;51.052;13.678;2023-11-19T09:53:38;2.10;;;1.13;;
3849;SDS011;1940;51.052;13.678;2023-11-19T09:56:04;3.53;;;1.20;;
3849;SDS011;1940;51.052;13.678;2023-11-19T09:58:31;2.13;;;1.30;;
3849;SDS011;1940;51.052;13.678;2023-11-19T10:00:57;1.83;;;1.10;;
3849;SDS011;1940;51.052;13.678;2023-11-19T10:03:24;1.60;;;1.10;;
3849;SDS011;1940;51.052;13.678;2023-11-19T10:05:57;1.73;;;1.07;;
3849;SDS011;1940;51.052;13.678;2023-11-19T10:08:24;6.20;;;2.80;;
3849;SDS011;1940;51.052;13.678;2023-11-19T10:10:49;7.33;;;1.40;;
3849;SDS011;1940;51.052;13.678;2023-11-19T10:13:16;2.30;;;1.50;;
3849;SDS011;1940;51.052;13.678;2023-11-19T10:15:42;2.23;;;1.33;;
3849;SDS011;1940;51.052;13.678;2023-11-19T10:18:09;6.00;;;2.20;;
3849;SDS011;1940;51.052;13.678;2023-11-19T10:20:37;3.87;;;2.00;;
3849;SDS011;1940;51.052;13.678;2023-11-19T10:23:06;6.07;;;1.63;;
3849;SDS011;1940;51.052;13.678;2023-11-19T10:25:32;2.30;;;1.50;;
3849;SDS011;1940;51.052;13.678;2023-11-19T10:27:58;2.10;;;1.40;;
3849;SDS011;1940;51.052;13.678;2023-11-19T10:30:25;6.97;;;2.00;;
3849;SDS011;1940;51.052;13.678;2023-11-19T10:33:11;5.90;;;2.50;;
3849;SDS011;1940;51.052;13.678;2023-11-19T10:35:57;3.10;;;1.70;;
3849;SDS011;1940;51.052;13.678;2023-11-19T10:38:24;2.43;;;1.30;;
3849;SDS011;1940;51.052;13.678;2023-11-19T10:40:50;1.93;;;1.17;;
3849;SDS011;1940;51.052;13.678;2023-11-19T10:43:17;3.43;;;1.60;;
3849;SDS011;1940;51.052;13.678;2023-11-19T10:45:43;2.33;;;1.43;;
3849;SDS011;1940;51.052;13.678;2023-11-19T10:48:08;2.43;;;1.37;;
3849;SDS011;1940;51.052;13.678;2023-11-19T10:50:38;3.00;;;1.57;;
3849;SDS011;1940;51.052;13.678;2023-11-19T10:53:05;1.80;;;1.17;;
3849;SDS011;1940;51.052;13.678;2023-11-19T10:55:33;5.20;;;1.10;;
3849;SDS011;1940;51.052;13.678;2023-11-19T10:58:01;4.33;;;2.40;;
3849;SDS011;1940;51.052;13.678;2023-11-19T11:00:29;2.67;;;1.30;;
3849;SDS011;1940;51.052;13.678;2023-11-19T11:03:01;2.40;;;1.30;;
3849;SDS011;1940;51.052;13.678;2023-11-19T11:05:35;1.50;;;1.07;;
3849;SDS011;1940;51.052;13.678;2023-11-19T11:08:04;2.90;;;1.40;;
3849;SDS011;1940;51.052;13.678;2023-11-19T11:10:31;2.33;;;1.10;;
3849;SDS011;1940;51.052;13.678;2023-11-19T11:13:02;1.77;;;1.00;;
3849;SDS011;1940;51.052;13.678;2023-11-19T11:15:30;4.90;;;1.10;;
3849;SDS011;1940;51.052;13.678;2023-11-19T11:17:57;1.60;;;1.00;;
3849;SDS011;1940;51.052;13.678;2023-11-19T11:20:30;4.00;;;1.27;;
3849;SDS011;1940;51.052;13.678;2023-11-19T11:28:58;2.73;;;1.20;;
3849;SDS011;1940;51.052;13.678;2023-11-19T11:31:48;3.00;;;1.50;;
3849;SDS011;1940;51.052;13.678;2023-11-19T11:37:39;5.67;;;1.23;;
3849;SDS011;1940;51.052;13.678;2023-11-19T11:40:16;4.00;;;1.10;;
3849;SDS011;1940;51.052;13.678;2023-11-19T11:42:43;3.67;;;1.30;;
3849;SDS011;1940;51.052;13.678;2023-11-19T11:45:09;1.27;;;1.10;;
3849;SDS011;1940;51.052;13.678;2023-11-19T11:50:08;3.00;;;1.23;;
3849;SDS011;1940;51.052;13.678;2023-11-19T11:58:02;2.17;;;1.30;;
3849;SDS011;1940;51.052;13.678;2023-11-19T12:02:55;6.77;;;1.53;;
3849;SDS011;1940;51.052;13.678;2023-11-19T12:05:25;2.00;;;1.43;;
3849;SDS011;1940;51.052;13.678;2023-11-19T12:07:58;4.07;;;1.20;;
3849;SDS011;1940;51.052;13.678;2023-11-19T12:10:26;7.80;;;1.50;;
3849;SDS011;1940;51.052;13.678;2023-11-19T12:12:59;5.33;;;1.47;;
3849;SDS011;1940;51.052;13.678;2023-11-19T12:15:25;5.10;;;1.50;;
3849;SDS011;1940;51.052;13.678;2023-11-19T12:17:53;7.43;;;2.10;;
3849;SDS011;1940;51.052;13.678;2023-11-19T12:20:24;4.87;;;1.30;;
3849;SDS011;1940;51.052;13.678;2023-11-19T12:22:51;2.37;;;1.30;;
3849;SDS011;1940;51.052;13.678;2023-11-19T12:25:17;7.23;;;1.80;;
3849;SDS011;1940;51.052;13.678;2023-11-19T12:27:47;6.57;;;1.70;;
3849;SDS011;1940;51.052;13.678;2023-11-19T12:30:18;3.50;;;1.30;;
3849;SDS011;1940;51.052;13.678;2023-11-19T12:32:50;7.57;;;2.00;;
3849;SDS011;1940;51.052;13.678;2023-11-19T12:35:16;6.97;;;1.80;;
3849;SDS011;1940;51.052;13.678;2023-11-19T12:37:42;8.33;;;1.93;;
3849;SDS011;1940;51.052;13.678;2023-11-19T12:40:13;9.00;;;1.67;;
3849;SDS011;1940;51.052;13.678;2023-11-19T12:42:39;6.43;;;2.70;;
3849;SDS011;1940;51.052;13.678;2023-11-19T12:45:05;3.40;;;1.50;;
3849;SDS011;1940;51.052;13.678;2023-11-19T12:47:30;4.53;;;1.40;;
3849;SDS011;1940;51.052;13.678;2023-11-19T12:49:56;9.63;;;2.57;;
3849;SDS011;1940;51.052;13.678;2023-11-19T12:52:22;7.33;;;2.30;;
3849;SDS011;1940;51.052;13.678;2023-11-19T12:54:48;5.50;;;1.80;;
3849;SDS011;1940;51.052;13.678;2023-11-19T12:57:15;7.37;;;2.03;;
3849;SDS011;1940;51.052;13.678;2023-11-19T12:59:40;6.50;;;1.90;;
3849;SDS011;1940;51.052;13.678;2023-11-19T13:02:06;7.33;;;2.10;;
3849;SDS011;1940;51.052;13.678;2023-11-19T13:04:32;8.60;;;2.40;;
3849;SDS011;1940;51.052;13.678;2023-11-19T13:06:59;5.97;;;1.80;;
3849;SDS011;1940;51.052;13.678;2023-11-19T13:09:25;4.60;;;1.80;;
3849;SDS011;1940;51.052;13.678;2023-11-19T13:11:52;3.40;;;1.57;;
3849;SDS011;1940;51.052;13.678;2023-11-19T13:14:19;10.23;;;1.97;;
3849;SDS011;1940;51.052;13.678;2023-11-19T13:16:45;4.03;;;1.50;;
3849;SDS011;1940;51.052;13.678;2023-11-19T13:19:12;6.70;;;2.30;;
3849;SDS011;1940;51.052;13.678;2023-11-19T13:21:37;6.87;;;2.03;;
3849;SDS011;1940;51.052;13.678;2023-11-19T13:24:05;12.73;;;2.27;;
3849;SDS011;1940;51.052;13.678;2023-11-19T13:26:31;2.90;;;1.63;;
3849;SDS011;1940;51.052;13.678;2023-11-19T13:28:56;6.33;;;2.00;;
3849;SDS011;1940;51.052;13.678;2023-11-19T13:31:22;11.10;;;2.47;;
3849;SDS011;1940;51.052;13.678;2023-11-19T13:33:47;7.13;;;2.20;;
3849;SDS011;1940;51.052;13.678;2023-11-19T13:36:13;5.30;;;2.30;;
3849;SDS011;1940;51.052;13.678;2023-11-19T13:38:38;4.83;;;2.00;;
3849;SDS011;1940;51.052;13.678;2023-11-19T13:41:06;12.60;;;2.50;;
3849;SDS011;1940;51.052;13.678;2023-11-19T13:43:34;13.50;;;2.40;;
3849;SDS011;1940;51.052;13.678;2023-11-19T13:46:00;14.00;;;2.57;;
3849;SDS011;1940;51.052;13.678;2023-11-19T13:48:26;8.97;;;2.03;;
3849;SDS011;1940;51.052;13.678;2023-11-19T13:50:52;11.97;;;1.90;;
3849;SDS011;1940;51.052;13.678;2023-11-19T13:53:18;12.60;;;2.37;;
3849;SDS011;1940;51.052;13.678;2023-11-19T13:55:43;12.83;;;2.10;;
3849;SDS011;1940;51.052;13.678;2023-11-19T13:58:09;13.57;;;2.40;;
3849;SDS011;1940;51.052;13.678;2023-11-19T14:00:35;9.20;;;2.20;;
3849;SDS011;1940;51.052;13.678;2023-11-19T14:03:01;4.47;;;1.83;;
3849;SDS011;1940;51.052;13.678;2023-11-19T14:05:27;6.27;;;2.10;;
3849;SDS011;1940;51.052;13.678;2023-11-19T14:07:53;8.13;;;3.03;;
3849;SDS011;1940;51.052;13.678;2023-11-19T14:10:21;7.20;;;2.17;;
3849;SDS011;1940;51.052;13.678;2023-11-19T14:12:47;9.30;;;2.20;;
3849;SDS011;1940;51.052;13.678;2023-11-19T14:15:12;4.73;;;1.83;;
3849;SDS011;1940;51.052;13.678;2023-11-19T14:17:39;7.40;;;2.60;;
3849;SDS011;1940;51.052;13.678;2023-11-19T14:20:05;10.80;;;1.90;;
3849;SDS011;1940;51.052;13.678;2023-11-19T14:22:45;8.90;;;2.33;;
3849;SDS011;1940;51.052;13.678;2023-11-19T14:25:14;8.40;;;2.20;;
3849;SDS011;1940;51.052;13.678;2023-11-19T14:27:40;7.73;;;2.13;;
3849;SDS011;1940;51.052;13.678;2023-11-19T14:30:07;7.90;;;2.10;;
3849;SDS011;1940;51.052;13.678;2023-11-19T14:32:36;10.60;;;2.13;;
3849;SDS011;1940;51.052;13.678;2023-11-19T14:35:02;11.17;;;2.17;;
3849;SDS011;1940;51.052;13.678;2023-11-19T14:37:28;5.63;;;2.13;;
3849;SDS011;1940;51.052;13.678;2023-11-19T14:39:55;10.60;;;2.40;;
3849;SDS011;1940;51.052;13.678;2023-11-19T14:42:22;7.90;;;2.17;;
3849;SDS011;1940;51.052;13.678;2023-11-19T14:44:50;6.67;;;2.20;;
3849;SDS011;1940;51.052;13.678;2023-11-19T14:47:17;5.30;;;2.30;;
3849;SDS011;1940;51.052;13.678;2023-11-19T14:49:43;13.67;;;2.70;;
3849;SDS011;1940;51.052;13.678;2023-11-19T14:52:09;11.20;;;2.40;;
3849;SDS011;1940;51.052;13.678;2023-11-19T14:54:35;11.80;;;2.77;;
3849;SDS011;1940;51.052;13.678;2023-11-19T14:57:01;9.47;;;2.10;;
3849;SDS011;1940;51.052;13.678;2023-11-19T14:59:26;7.17;;;2.20;;
3849;SDS011;1940;51.052;13.678;2023-11-19T15:01:53;7.60;;;2.60;;
3849;SDS011;1940;51.052;13.678;2023-11-19T15:04:18;12.07;;;2.63;;
3849;SDS011;1940;51.052;13.678;2023-11-19T15:06:44;8.67;;;2.60;;
3849;SDS011;1940;51.052;13.678;2023-11-19T15:09:09;9.97;;;2.40;;
3849;SDS011;1940;51.052;13.678;2023-11-19T15:11:41;8.77;;;2.53;;
3849;SDS011;1940;51.052;13.678;2023-11-19T15:14:06;7.27;;;2.20;;
3849;SDS011;1940;51.052;13.678;2023-11-19T15:16:32;4.30;;;2.10;;
3849;SDS011;1940;51.052;13.678;2023-11-19T15:18:59;9.73;;;2.43;;
3849;SDS011;1940;51.052;13.678;2023-11-19T15:21:26;10.30;;;2.37;;